Time;durP1;ratioP1;P1;durP2;ratioP2;P2;SDS_P1;SDS_P2;PMS_P1;PMS_P2;Temp;Humidity;BMP_temperature;BMP_pressure;BME280_temperature;BME280_humidity;BME280_pressure;Samples;Min_cycle;Max_cycle;Signal;HPM_P1;HPM_P2
2022/12/22 03:26:24;;;;;;;1.93;1.83;;;10.30;99.90;;;;;;5095507;28;20483;-59
2022/12/22 03:28:51;;;;;;;2.40;2.20;;;10.30;99.90;;;;;;5095820;28;20573;-59
2022/12/22 03:31:18;;;;;;;2.30;2.10;;;10.30;99.90;;;;;;5095358;28;20463;-60
2022/12/22 03:33:47;;;;;;;2.50;2.30;;;10.20;99.90;;;;;;5095692;28;20444;-58
2022/12/22 03:36:14;;;;;;;2.10;2.00;;;10.20;99.90;;;;;;5095707;28;20466;-58
2022/12/22 03:38:41;;;;;;;3.10;1.80;;;10.20;99.90;;;;;;5095718;28;20815;-60
2022/12/22 03:46:28;;;;;;;2.70;1.83;;;10.20;99.90;;;;;;5095155;28;20528;-59
2022/12/22 03:46:39;;;;;;;2.10;1.90;;;10.20;99.90;;;;;;5095224;28;20462;-59
2022/12/22 03:49:11;;;;;;;1.93;1.70;;;10.20;99.90;;;;;;5095327;28;20443;-59
2022/12/22 03:51:40;;;;;;;2.93;2.40;;;10.20;99.90;;;;;;5095414;28;20485;-60
2022/12/22 03:54:08;;;;;;;2.43;2.20;;;10.20;99.90;;;;;;5095224;28;20443;-60
2022/12/22 03:56:35;;;;;;;3.00;1.87;;;10.20;99.90;;;;;;5094935;28;20443;-59
2022/12/22 03:59:02;;;;;;;2.10;1.77;;;10.30;99.90;;;;;;5095123;28;20443;-59
2022/12/22 04:01:29;;;;;;;1.80;1.70;;;10.30;99.90;;;;;;5094883;28;20877;-60
2022/12/22 04:03:56;;;;;;;2.43;1.80;;;10.30;99.90;;;;;;5094847;28;20447;-60
2022/12/22 04:06:25;;;;;;;2.23;2.03;;;10.40;99.90;;;;;;5094635;28;20566;-60
2022/12/22 04:08:52;;;;;;;2.90;1.80;;;10.40;99.90;;;;;;5095200;28;20546;-60
2022/12/22 04:14:04;;;;;;;1.73;1.60;;;10.40;99.90;;;;;;5094735;28;20978;-60
2022/12/22 04:16:31;;;;;;;1.73;1.63;;;10.50;99.90;;;;;;5094872;28;20446;-59
2022/12/22 04:18:59;;;;;;;2.17;2.00;;;10.50;99.90;;;;;;5094362;28;20444;-59
2022/12/22 04:21:27;;;;;;;1.93;1.80;;;10.50;99.90;;;;;;5094811;28;20454;-60
2022/12/22 04:23:54;;;;;;;2.17;1.87;;;10.50;99.90;;;;;;5094357;28;20946;-59
2022/12/22 04:26:23;;;;;;;2.50;1.83;;;10.50;99.90;;;;;;5094555;28;20578;-60
2022/12/22 04:28:51;;;;;;;2.33;2.10;;;10.50;99.90;;;;;;5094259;28;20447;-60
2022/12/22 04:31:18;;;;;;;1.80;1.67;;;10.50;99.90;;;;;;5094484;28;20471;-60
2022/12/22 04:33:46;;;;;;;2.63;1.50;;;10.50;99.90;;;;;;5094112;28;20444;-60
2022/12/22 04:36:13;;;;;;;1.73;1.57;;;10.50;99.90;;;;;;5094503;28;20444;-59
2022/12/22 04:38:42;;;;;;;2.60;1.60;;;10.50;99.90;;;;;;5094674;28;20462;-59
2022/12/22 04:41:09;;;;;;;2.13;1.90;;;10.50;99.90;;;;;;5094341;28;20505;-60
2022/12/22 04:43:37;;;;;;;2.10;1.90;;;10.50;99.90;;;;;;5094086;28;20448;-60
2022/12/22 04:46:04;;;;;;;2.80;1.70;;;10.50;99.90;;;;;;5093923;28;20489;-59
2022/12/22 04:48:32;;;;;;;2.80;1.60;;;10.40;99.90;;;;;;5094314;28;20443;-60
2022/12/22 04:51:00;;;;;;;1.90;1.80;;;10.40;99.90;;;;;;5094107;28;20814;-59
2022/12/22 04:53:29;;;;;;;1.70;1.60;;;10.40;99.90;;;;;;5093833;28;20448;-60
2022/12/22 04:56:00;;;;;;;2.07;1.87;;;10.40;99.90;;;;;;5093681;28;20448;-59
2022/12/22 04:58:27;;;;;;;1.70;1.60;;;10.40;99.90;;;;;;5094228;28;20432;-60
2022/12/22 05:00:54;;;;;;;2.20;2.00;;;10.40;99.90;;;;;;5093991;28;20474;-60
2022/12/22 05:03:22;;;;;;;2.17;1.70;;;10.50;99.90;;;;;;5094046;28;20550;-59
2022/12/22 05:05:49;;;;;;;1.60;1.50;;;10.60;99.90;;;;;;5093884;28;20451;-60
2022/12/22 05:08:16;;;;;;;4.90;1.90;;;10.60;99.90;;;;;;5093943;28;20455;-60
2022/12/22 05:10:43;;;;;;;1.87;1.40;;;10.70;99.90;;;;;;5093845;28;20463;-60
2022/12/22 05:13:12;;;;;;;2.37;1.63;;;10.70;99.90;;;;;;5093642;28;20947;-60
2022/12/22 05:15:39;;;;;;;3.43;2.20;;;10.70;99.90;;;;;;5093558;28;20452;-60
2022/12/22 05:18:06;;;;;;;2.53;1.80;;;10.70;99.90;;;;;;5093877;28;20806;-60
2022/12/22 05:20:36;;;;;;;1.77;1.67;;;10.80;99.90;;;;;;5093750;28;20467;-60
2022/12/22 05:23:03;;;;;;;2.63;1.90;;;10.80;99.90;;;;;;5093513;28;20448;-60
2022/12/22 05:25:30;;;;;;;3.10;2.30;;;10.80;99.90;;;;;;5093321;28;20475;-60
2022/12/22 05:27:58;;;;;;;2.90;1.60;;;10.80;99.90;;;;;;5093372;28;20479;-60
2022/12/22 05:30:26;;;;;;;2.93;2.13;;;10.80;99.90;;;;;;5093290;28;20562;-59
2022/12/22 05:32:53;;;;;;;3.07;1.80;;;10.80;99.90;;;;;;5093394;28;20926;-60
2022/12/22 05:35:21;;;;;;;2.90;2.30;;;10.90;99.90;;;;;;5093627;28;20454;-60
2022/12/22 05:37:48;;;;;;;5.40;2.17;;;10.80;99.90;;;;;;5093716;28;20451;-59
2022/12/22 05:40:15;;;;;;;2.90;1.90;;;10.80;99.90;;;;;;5093013;28;20493;-59
2022/12/22 05:42:42;;;;;;;4.90;2.03;;;10.80;99.90;;;;;;5093295;28;20917;-60
2022/12/22 05:45:15;;;;;;;2.33;1.60;;;10.80;99.90;;;;;;5094191;28;20450;-60
2022/12/22 05:47:45;;;;;;;3.67;2.13;;;10.80;99.90;;;;;;5098022;28;20494;-59
2022/12/22 05:50:14;;;;;;;3.17;1.67;;;10.80;99.90;;;;;;5097576;28;20466;-60
2022/12/22 05:52:41;;;;;;;1.60;1.50;;;10.80;99.90;;;;;;5097633;28;20447;-59
2022/12/22 05:55:09;;;;;;;3.50;1.83;;;10.90;99.90;;;;;;5097181;28;20458;-60
2022/12/22 05:57:36;;;;;;;3.13;1.97;;;10.80;99.90;;;;;;5097422;28;20965;-60
2022/12/22 06:00:05;;;;;;;1.97;1.70;;;10.80;99.90;;;;;;5097031;28;20467;-60
2022/12/22 06:02:32;;;;;;;7.00;2.30;;;10.80;99.90;;;;;;5097335;28;20443;-60
2022/12/22 06:05:01;;;;;;;3.57;2.27;;;10.80;99.90;;;;;;5097220;28;20449;-60
2022/12/22 06:07:28;;;;;;;6.83;2.70;;;10.70;99.90;;;;;;5097281;28;20577;-60
2022/12/22 06:09:55;;;;;;;5.70;2.27;;;10.60;99.90;;;;;;5097191;28;20546;-59
2022/12/22 06:12:22;;;;;;;6.17;2.03;;;10.60;99.90;;;;;;5096974;28;20488;-59
2022/12/22 06:14:50;;;;;;;3.33;2.30;;;10.50;99.90;;;;;;5097141;28;20454;-60
2022/12/22 06:17:17;;;;;;;3.30;2.20;;;10.50;99.90;;;;;;5097215;28;20526;-59
2022/12/22 06:19:44;;;;;;;2.90;1.70;;;10.50;99.90;;;;;;5096984;28;20467;-59
2022/12/22 06:22:13;;;;;;;5.17;2.07;;;10.50;99.90;;;;;;5096892;28;20444;-59
2022/12/22 06:24:40;;;;;;;4.93;2.60;;;10.50;99.90;;;;;;5096876;28;20545;-59
2022/12/22 06:27:07;;;;;;;2.33;1.80;;;10.50;99.90;;;;;;5096847;28;20475;-60
2022/12/22 06:29:34;;;;;;;4.70;2.57;;;10.40;99.90;;;;;;5096553;28;20477;-59
2022/12/22 06:32:01;;;;;;;5.00;2.20;;;10.40;99.90;;;;;;5096461;28;20453;-59
2022/12/22 06:34:29;;;;;;;3.40;1.97;;;10.50;99.90;;;;;;5096832;28;20443;-59
2022/12/22 06:36:56;;;;;;;2.03;1.83;;;10.50;99.90;;;;;;5096610;28;20452;-59
2022/12/22 06:39:24;;;;;;;2.30;2.10;;;10.60;99.90;;;;;;5096701;28;20466;-60
2022/12/22 06:44:40;;;;;;;9.83;3.40;;;10.70;99.90;;;;;;5095109;28;20877;-59
2022/12/22 06:47:08;;;;;;;3.57;2.80;;;10.80;99.90;;;;;;5095023;28;20589;-59
2022/12/22 06:49:35;;;;;;;5.10;3.00;;;10.90;99.90;;;;;;5095234;28;20471;-60
2022/12/22 06:52:02;;;;;;;4.97;2.47;;;11.00;99.90;;;;;;5095062;28;20497;-61
2022/12/22 06:54:30;;;;;;;6.50;2.30;;;11.20;99.90;;;;;;5094844;28;21042;-60
2022/12/22 06:56:57;;;;;;;4.60;2.40;;;11.30;99.90;;;;;;5094490;28;20482;-59
2022/12/22 06:59:24;;;;;;;4.20;2.50;;;11.30;99.90;;;;;;5094955;28;20468;-59
2022/12/22 07:01:51;;;;;;;6.03;2.83;;;11.30;99.90;;;;;;5094938;28;20443;-59
2022/12/22 07:04:20;;;;;;;10.27;2.90;;;11.40;99.90;;;;;;5094722;28;20451;-60
2022/12/22 07:06:48;;;;;;;9.20;3.03;;;11.30;99.90;;;;;;5094782;28;20561;-60
2022/12/22 07:09:15;;;;;;;3.80;2.27;;;11.40;99.90;;;;;;5094522;28;20438;-60
2022/12/22 07:11:43;;;;;;;6.40;2.37;;;11.40;99.90;;;;;;5094863;28;20536;-60
2022/12/22 07:14:11;;;;;;;8.33;2.93;;;11.40;99.90;;;;;;5094900;28;20439;-60
2022/12/22 07:16:38;;;;;;;7.07;2.47;;;11.40;99.90;;;;;;5094666;28;20534;-59
2022/12/22 07:19:05;;;;;;;4.60;2.60;;;11.40;99.90;;;;;;5094753;28;20555;-59
2022/12/22 07:21:33;;;;;;;5.07;2.67;;;11.40;99.90;;;;;;5094547;28;20447;-60
2022/12/22 07:24:00;;;;;;;5.33;3.13;;;11.40;99.90;;;;;;5094618;28;20538;-60
2022/12/22 07:26:27;;;;;;;3.13;2.47;;;11.30;99.90;;;;;;5094373;28;20448;-60
2022/12/22 07:28:55;;;;;;;7.03;2.20;;;11.40;99.90;;;;;;5094409;28;20486;-60
2022/12/22 07:31:23;;;;;;;8.77;3.20;;;11.40;99.90;;;;;;5094158;28;20558;-60
2022/12/22 07:33:50;;;;;;;4.43;2.33;;;11.30;99.90;;;;;;5094310;28;20541;-60
2022/12/22 07:36:19;;;;;;;6.53;2.60;;;11.30;99.90;;;;;;5094207;28;20452;-59
2022/12/22 07:38:48;;;;;;;6.30;3.10;;;11.40;99.90;;;;;;5094554;28;20546;-59
2022/12/22 07:44:04;;;;;;;5.07;2.60;;;11.40;99.90;;;;;;5095211;28;20221;-59
2022/12/22 07:46:34;;;;;;;9.23;2.40;;;11.40;99.90;;;;;;5094993;28;20448;-59
2022/12/22 07:51:46;;;;;;;4.87;2.40;;;11.40;99.90;;;;;;5095205;28;20415;-59
2022/12/22 07:54:14;;;;;;;6.90;2.40;;;11.30;99.90;;;;;;5095031;28;20530;-60
2022/12/22 07:56:42;;;;;;;8.83;2.77;;;11.30;99.90;;;;;;5095003;28;20472;-60
2022/12/22 07:59:11;;;;;;;8.77;2.73;;;11.20;99.90;;;;;;5094973;28;20452;-60
2022/12/22 08:01:40;;;;;;;3.80;2.67;;;11.20;99.90;;;;;;5094765;28;20448;-60
2022/12/22 08:04:07;;;;;;;6.90;3.53;;;11.20;99.90;;;;;;5094488;28;20868;-60
2022/12/22 08:06:35;;;;;;;5.80;2.80;;;11.10;99.90;;;;;;5094592;28;20451;-60
2022/12/22 08:09:03;;;;;;;7.90;2.53;;;11.00;99.90;;;;;;5093787;28;20490;-60
2022/12/22 08:11:30;;;;;;;2.53;2.30;;;10.90;99.90;;;;;;5094853;28;20538;-60
2022/12/22 08:13:57;;;;;;;7.77;3.20;;;10.90;99.90;;;;;;5094425;28;20804;-60
2022/12/22 08:16:26;;;;;;;5.60;2.40;;;10.90;99.90;;;;;;5094554;28;20486;-59
2022/12/22 08:18:53;;;;;;;7.43;2.83;;;10.90;99.90;;;;;;5094477;28;20802;-60
2022/12/22 08:21:20;;;;;;;3.90;3.20;;;10.80;99.90;;;;;;5094737;28;20561;-58
2022/12/22 08:23:47;;;;;;;6.17;2.77;;;10.80;99.90;;;;;;5094708;28;20876;-59
2022/12/22 08:26:18;;;;;;;6.70;2.60;;;10.90;99.90;;;;;;5094575;28;20447;-59
2022/12/22 08:28:50;;;;;;;3.27;2.20;;;10.90;99.90;;;;;;5094189;28;20490;-59
2022/12/22 08:31:18;;;;;;;16.00;3.07;;;10.90;99.90;;;;;;5094518;28;20475;-59
2022/12/22 08:33:48;;;;;;;4.80;2.20;;;11.00;99.90;;;;;;5094360;28;20443;-59
2022/12/22 08:36:15;;;;;;;7.80;2.60;;;11.00;99.90;;;;;;5094433;28;20569;-59
2022/12/22 08:38:43;;;;;;;3.43;2.50;;;11.00;99.90;;;;;;5094602;28;20454;-58
2022/12/22 08:41:13;;;;;;;7.53;2.60;;;10.90;99.90;;;;;;5093980;28;20831;-59
2022/12/22 08:43:40;;;;;;;11.50;2.93;;;11.00;99.90;;;;;;5093872;28;20539;-59
2022/12/22 08:46:08;;;;;;;7.50;2.97;;;11.00;99.90;;;;;;5093918;28;20451;-59
2022/12/22 08:48:35;;;;;;;4.63;2.37;;;11.00;99.90;;;;;;5094182;28;20483;-59
2022/12/22 08:51:03;;;;;;;3.63;2.63;;;11.10;99.90;;;;;;5093939;28;21032;-59
2022/12/22 08:53:31;;;;;;;5.53;2.60;;;11.10;99.90;;;;;;5094069;28;20475;-59
2022/12/22 08:55:58;;;;;;;6.70;2.50;;;11.10;99.90;;;;;;5093701;28;21013;-59
2022/12/22 08:58:25;;;;;;;4.13;2.47;;;11.30;99.90;;;;;;5099284;28;20486;-59
2022/12/22 09:00:52;;;;;;;5.30;3.57;;;11.40;99.90;;;;;;5107717;28;20984;-59
2022/12/22 09:03:19;;;;;;;6.73;2.50;;;11.50;99.90;;;;;;5114318;28;20442;-59
2022/12/22 09:05:46;;;;;;;3.60;2.53;;;11.50;99.90;;;;;;5114655;28;20501;-59
2022/12/22 09:08:15;;;;;;;11.70;2.93;;;11.60;99.90;;;;;;5114194;28;20489;-59
2022/12/22 09:10:43;;;;;;;5.00;2.73;;;11.60;99.90;;;;;;5114400;28;20907;-59
2022/12/22 09:13:10;;;;;;;8.37;2.90;;;11.80;99.90;;;;;;5114187;28;20443;-59
2022/12/22 09:15:38;;;;;;;8.33;2.67;;;11.90;99.90;;;;;;5114066;28;20788;-60
2022/12/22 09:18:05;;;;;;;6.43;2.87;;;11.90;99.90;;;;;;5114165;28;20845;-60
2022/12/22 09:20:32;;;;;;;2.77;2.40;;;11.90;99.90;;;;;;5113909;28;20486;-60
2022/12/22 09:23:00;;;;;;;5.13;3.63;;;11.70;99.90;;;;;;5114002;28;20458;-60
2022/12/22 09:25:28;;;;;;;6.97;2.87;;;11.60;99.90;;;;;;5113984;28;20457;-60
2022/12/22 09:27:55;;;;;;;5.00;2.93;;;11.50;99.90;;;;;;5113854;28;20489;-60
2022/12/22 09:30:22;;;;;;;8.93;2.67;;;11.40;99.90;;;;;;5113474;28;20545;-60
2022/12/22 09:32:50;;;;;;;4.83;2.83;;;11.20;99.90;;;;;;5114001;28;20454;-61
2022/12/22 09:35:17;;;;;;;8.40;2.73;;;11.10;99.90;;;;;;5113594;28;20837;-60
2022/12/22 09:37:44;;;;;;;10.93;2.63;;;11.10;99.90;;;;;;5113850;28;20454;-60
2022/12/22 09:40:12;;;;;;;4.50;2.37;;;11.00;99.90;;;;;;5113095;28;20833;-60
2022/12/22 09:42:41;;;;;;;6.53;3.77;;;10.90;99.90;;;;;;5113485;28;20480;-59
2022/12/22 09:45:18;;;;;;;7.33;2.40;;;10.80;99.90;;;;;;5113742;28;20450;-60
2022/12/22 09:47:52;;;;;;;7.60;3.13;;;10.70;99.90;;;;;;5113889;28;20484;-60
2022/12/22 09:50:22;;;;;;;8.10;3.40;;;;;;;;;;5113425;28;20553;-61
2022/12/22 09:52:53;;;;;;;11.00;2.70;;;10.70;99.90;;;;;;5113499;28;20449;-60
2022/12/22 09:55:39;;;;;;;6.03;2.50;;;10.70;99.90;;;;;;5113660;28;20454;-59
2022/12/22 09:58:18;;;;;;;6.93;2.70;;;10.70;99.90;;;;;;5113256;28;20419;-59
2022/12/22 10:00:51;;;;;;;8.67;2.67;;;10.70;99.90;;;;;;5113941;28;20470;-60
2022/12/22 10:03:35;;;;;;;4.40;3.07;;;10.70;99.90;;;;;;5113389;28;20426;-60
2022/12/22 10:06:11;;;;;;;7.43;2.93;;;10.60;99.90;;;;;;5113241;28;20433;-60
2022/12/22 10:08:40;;;;;;;5.40;2.33;;;10.70;99.90;;;;;;5113650;28;20584;-60
2022/12/22 10:11:12;;;;;;;5.33;3.20;;;10.80;99.90;;;;;;5113133;28;20829;-60
2022/12/22 10:13:40;;;;;;;5.40;2.70;;;10.90;99.90;;;;;;5113616;28;20418;-60
2022/12/22 10:16:18;;;;;;;6.43;2.40;;;11.10;99.90;;;;;;5113201;28;20537;-60
2022/12/22 10:18:57;;;;;;;6.53;2.53;;;11.10;99.90;;;;;;5113225;28;20991;-60
2022/12/22 10:21:25;;;;;;;5.80;3.63;;;11.10;99.90;;;;;;5113596;28;20427;-60
2022/12/22 10:23:53;;;;;;;5.40;2.40;;;11.10;99.90;;;;;;5113353;28;20497;-60
2022/12/22 10:26:23;;;;;;;4.67;2.33;;;11.10;99.90;;;;;;5113295;28;20446;-60
2022/12/22 10:28:55;;;;;;;6.10;2.30;;;11.20;99.90;;;;;;5113028;28;20519;-60
2022/12/22 10:31:24;;;;;;;3.60;2.30;;;11.20;99.90;;;;;;5114584;28;20796;-60
2022/12/22 10:33:54;;;;;;;5.10;2.70;;;11.10;99.90;;;;;;5117042;28;20472;-60
2022/12/22 10:36:25;;;;;;;3.20;2.03;;;11.10;99.90;;;;;;5117135;28;20850;-59
2022/12/22 10:38:59;;;;;;;3.60;2.33;;;11.10;99.90;;;;;;5117184;28;20447;-60
2022/12/22 10:41:28;;;;;;;3.70;1.70;;;11.10;99.90;;;;;;5116624;28;20474;-60
2022/12/22 10:43:59;;;;;;;3.93;2.00;;;11.30;99.90;;;;;;5116701;28;20442;-60
2022/12/22 10:46:34;;;;;;;2.70;1.97;;;11.30;99.90;;;;;;5116910;28;20449;-60
2022/12/22 10:49:23;;;;;;;3.80;1.97;;;11.20;99.90;;;;;;5116971;28;20488;-60
2022/12/22 10:51:53;;;;;;;8.80;2.40;;;11.00;99.90;;;;;;5111071;28;20450;-61
2022/12/22 10:54:32;;;;;;;4.20;2.40;;;11.10;99.90;;;;;;5116457;28;20514;-60
2022/12/22 10:57:02;;;;;;;2.60;2.07;;;11.10;99.90;;;;;;5116453;28;20426;-59
2022/12/22 10:59:31;;;;;;;4.13;2.17;;;11.00;99.90;;;;;;5116604;28;20470;-60
2022/12/22 11:02:24;;;;;;;3.77;2.27;;;11.00;99.90;;;;;;5116268;28;20885;-60
2022/12/22 11:04:52;;;;;;;5.23;2.50;;;11.00;99.90;;;;;;5116355;28;20430;-60
2022/12/22 11:07:20;;;;;;;9.27;2.50;;;11.00;99.90;;;;;;5116520;28;20454;-60
2022/12/22 11:09:47;;;;;;;5.70;2.30;;;11.10;99.90;;;;;;5116116;28;20482;-61
2022/12/22 11:12:28;;;;;;;7.17;2.30;;;11.10;99.90;;;;;;5116188;28;20485;-61
2022/12/22 11:15:02;;;;;;;5.77;2.40;;;11.20;99.90;;;;;;5116495;28;20430;-60
2022/12/22 11:17:38;;;;;;;3.60;2.23;;;11.40;99.90;;;;;;5116235;28;20464;-60
2022/12/22 11:20:38;;;;;;;4.57;2.40;;;11.80;99.90;;;;;;5116444;28;20516;-60
2022/12/22 11:23:14;;;;;;;4.33;2.20;;;12.00;99.90;;;;;;5116167;28;20430;-60
2022/12/22 11:25:55;;;;;;;5.23;2.37;;;12.30;99.90;;;;;;5116070;28;20426;-60
2022/12/22 11:28:43;;;;;;;2.70;1.80;;;12.20;99.90;;;;;;5115956;28;20467;-61
2022/12/22 11:31:27;;;;;;;2.93;1.87;;;12.50;99.90;;;;;;5115977;28;20538;-60
2022/12/22 11:34:06;;;;;;;3.10;1.77;;;12.60;99.90;;;;;;5115807;28;20916;-60
2022/12/22 11:36:41;;;;;;;2.50;1.70;;;12.60;99.90;;;;;;5115929;28;20422;-60
2022/12/22 11:39:14;;;;;;;5.37;2.10;;;12.50;99.90;;;;;;5115375;28;20517;-60
2022/12/22 11:42:01;;;;;;;3.00;1.90;;;12.40;99.90;;;;;;5115441;28;20494;-60
2022/12/22 11:44:41;;;;;;;1.93;1.73;;;12.40;99.90;;;;;;5115177;28;20525;-60
2022/12/22 11:47:20;;;;;;;3.10;2.00;;;12.30;99.90;;;;;;5115339;28;20895;-59
2022/12/22 11:50:19;;;;;;;2.10;1.80;;;12.70;99.90;;;;;;5115526;28;20496;-60
2022/12/22 11:53:02;;;;;;;6.17;1.80;;;13.10;99.90;;;;;;5114777;28;20502;-60
2022/12/22 11:55:33;;;;;;;3.07;1.70;;;13.00;99.90;;;;;;5115181;28;20899;-60
2022/12/22 11:58:27;;;;;;;3.83;1.93;;;13.10;99.90;;;;;;5114834;28;20430;-60
2022/12/22 12:01:04;;;;;;;2.00;1.30;;;13.10;99.90;;;;;;5112224;28;20466;-60
2022/12/22 12:03:51;;;;;;;3.00;2.03;;;13.00;99.90;;;;;;5115443;28;20423;-60
2022/12/22 12:06:40;;;;;;;2.80;1.60;;;12.90;99.90;;;;;;5115447;28;20438;-60
2022/12/22 12:09:28;;;;;;;4.63;1.70;;;12.80;99.90;;;;;;5114529;28;20478;-60
2022/12/22 12:12:02;;;;;;;2.30;1.60;;;13.00;99.90;;;;;;5115215;28;20434;-60
2022/12/22 12:14:38;;;;;;;2.33;1.50;;;12.80;99.90;;;;;;5114933;28;20475;-60
2022/12/22 12:17:17;;;;;;;1.40;1.30;;;12.80;99.90;;;;;;5114866;28;20542;-60
2022/12/22 12:20:00;;;;;;;2.00;1.60;;;13.00;99.90;;;;;;5115104;28;20465;-60
2022/12/22 12:22:38;;;;;;;6.67;1.70;;;12.90;99.90;;;;;;5115164;28;20753;-60
2022/12/22 12:25:21;;;;;;;2.50;1.60;;;12.90;99.90;;;;;;5114939;28;20435;-60
2022/12/22 12:28:00;;;;;;;2.50;1.67;;;12.90;99.90;;;;;;5114708;28;20856;-60
2022/12/22 12:30:35;;;;;;;3.70;1.90;;;12.80;99.90;;;;;;5114800;28;20553;-58
2022/12/22 12:33:07;;;;;;;2.70;1.70;;;12.70;99.90;;;;;;5114855;28;20426;-58
2022/12/22 12:35:49;;;;;;;3.53;1.80;;;12.60;99.90;;;;;;5114884;28;20527;-57
2022/12/22 12:38:25;;;;;;;2.30;1.53;;;12.50;99.90;;;;;;5114640;28;20450;-56
2022/12/22 12:41:00;;;;;;;5.67;2.10;;;12.50;99.90;;;;;;5114243;28;20818;-56
2022/12/22 12:43:27;;;;;;;2.37;1.50;;;12.50;99.90;;;;;;5114158;28;20506;-56
2022/12/22 12:45:55;;;;;;;3.23;1.80;;;12.50;99.90;;;;;;5114500;28;20450;-57
2022/12/22 12:48:40;;;;;;;4.27;2.20;;;12.40;99.90;;;;;;5114337;28;20730;-56
2022/12/22 12:51:46;;;;;;;2.53;1.50;;;12.40;99.90;;;;;;5114495;28;20467;-57
2022/12/22 12:54:36;;;;;;;2.73;1.63;;;12.40;99.90;;;;;;5110704;28;20454;-57
2022/12/22 12:57:21;;;;;;;1.73;1.40;;;12.40;99.90;;;;;;5114071;28;20513;-57
2022/12/22 12:59:49;;;;;;;2.77;1.60;;;12.30;99.90;;;;;;5114316;28;20820;-57
2022/12/22 13:02:37;;;;;;;4.03;1.93;;;12.40;99.90;;;;;;5113989;28;20534;-57
2022/12/22 13:05:27;;;;;;;2.40;1.60;;;12.40;99.90;;;;;;5113987;28;20897;-57
2022/12/22 13:08:13;;;;;;;3.60;1.63;;;12.40;99.90;;;;;;5114392;28;20450;-57
2022/12/22 13:10:43;;;;;;;1.97;1.43;;;12.40;99.90;;;;;;5113935;28;21025;-57
2022/12/22 13:13:12;;;;;;;5.30;1.63;;;12.50;99.90;;;;;;5114147;28;20513;-57
2022/12/22 13:15:43;;;;;;;1.90;1.50;;;12.40;99.90;;;;;;5113883;28;20947;-57
2022/12/22 13:18:42;;;;;;;1.77;1.60;;;12.50;99.90;;;;;;5114180;28;20818;-57
2022/12/22 13:21:15;;;;;;;3.53;2.27;;;12.50;99.90;;;;;;5113723;28;20458;-57
2022/12/22 13:23:57;;;;;;;3.67;1.80;;;12.40;99.90;;;;;;5113779;28;20427;-58
2022/12/22 13:26:27;;;;;;;3.40;1.67;;;12.40;99.90;;;;;;5113631;28;20788;-54
2022/12/22 13:28:57;;;;;;;1.70;1.60;;;12.40;99.90;;;;;;5113592;28;20533;-67
2022/12/22 13:31:30;;;;;;;2.00;1.40;;;12.40;99.90;;;;;;5114014;28;20454;-63
2022/12/22 13:34:07;;;;;;;4.40;1.60;;;12.30;99.90;;;;;;5113502;28;20947;-67
2022/12/22 13:36:34;;;;;;;3.20;1.50;;;12.30;99.90;;;;;;5113706;28;20422;-66
2022/12/22 13:39:05;;;;;;;5.13;2.43;;;12.30;99.90;;;;;;5113387;28;20446;-62
2022/12/22 13:41:33;;;;;;;3.87;1.73;;;12.40;99.90;;;;;;5113253;28;20478;-66
2022/12/22 13:44:06;;;;;;;3.70;2.07;;;12.50;99.90;;;;;;5113661;28;20442;-65
2022/12/22 13:46:35;;;;;;;2.57;1.67;;;12.50;99.90;;;;;;5113899;28;20449;-65
2022/12/22 13:49:03;;;;;;;6.07;1.60;;;12.50;99.90;;;;;;5113562;28;20490;-62
2022/12/22 13:51:35;;;;;;;3.70;1.80;;;12.50;99.90;;;;;;5113405;28;20450;-61
2022/12/22 13:54:13;;;;;;;2.43;1.60;;;12.60;99.90;;;;;;5113781;28;20905;-57
2022/12/22 13:56:44;;;;;;;3.10;1.40;;;12.60;99.90;;;;;;5113573;28;20427;-60
2022/12/22 13:59:25;;;;;;;1.97;1.67;;;12.60;99.90;;;;;;5113718;28;20514;-61
2022/12/22 14:01:57;;;;;;;2.27;1.37;;;12.50;99.90;;;;;;5113413;28;20893;-60
2022/12/22 14:04:25;;;;;;;1.80;1.40;;;12.50;99.90;;;;;;5113366;28;20426;-60
2022/12/22 14:06:53;;;;;;;4.13;1.60;;;12.50;99.90;;;;;;5115554;28;20495;-60
2022/12/22 14:09:24;;;;;;;5.33;1.43;;;12.50;99.90;;;;;;5117325;28;20511;-59
2022/12/22 14:11:55;;;;;;;2.60;2.37;;;12.40;99.90;;;;;;5117055;28;20462;-60
2022/12/22 14:14:26;;;;;;;3.17;2.00;;;12.40;99.90;;;;;;5117239;28;20931;-56
2022/12/22 14:16:55;;;;;;;2.00;1.87;;;12.40;99.90;;;;;;5117196;28;20427;-58
2022/12/22 14:19:24;;;;;;;3.93;1.80;;;12.40;99.90;;;;;;5117354;28;20557;-62
2022/12/22 14:22:04;;;;;;;4.40;1.90;;;12.50;99.90;;;;;;5117285;28;20446;-60
2022/12/22 14:24:37;;;;;;;2.27;1.53;;;12.40;99.90;;;;;;5117365;28;20537;-59
2022/12/22 14:27:04;;;;;;;6.67;1.93;;;12.30;99.90;;;;;;5117017;28;20431;-57
2022/12/22 14:29:32;;;;;;;4.10;1.70;;;12.30;99.90;;;;;;5116639;28;20492;-62
2022/12/22 14:32:01;;;;;;;2.00;1.70;;;12.30;99.90;;;;;;5116882;28;20545;-63
2022/12/22 14:34:29;;;;;;;2.50;1.60;;;12.20;99.90;;;;;;5117109;28;20446;-59
2022/12/22 14:36:58;;;;;;;4.07;1.90;;;12.10;99.90;;;;;;5117358;28;20489;-60
2022/12/22 14:39:26;;;;;;;3.43;1.87;;;12.10;99.90;;;;;;5117059;28;20455;-62
2022/12/22 14:41:58;;;;;;;6.00;2.90;;;12.00;99.90;;;;;;5116604;28;20558;-59
2022/12/22 14:44:28;;;;;;;4.07;1.80;;;12.00;99.90;;;;;;5117050;28;20430;-62
2022/12/22 14:47:17;;;;;;;4.47;2.00;;;12.00;99.90;;;;;;5116693;28;20427;-61
2022/12/22 14:49:49;;;;;;;3.90;2.80;;;12.00;99.90;;;;;;5116458;28;20492;-61
2022/12/22 14:52:25;;;;;;;10.00;2.60;;;12.00;99.90;;;;;;5116718;28;20435;-62
2022/12/22 14:54:54;;;;;;;2.93;1.83;;;12.00;99.90;;;;;;5116766;28;20434;-63
2022/12/22 14:57:29;;;;;;;6.77;3.10;;;11.90;99.90;;;;;;5116537;28;20439;-57
2022/12/22 15:00:02;;;;;;;6.77;2.63;;;11.90;99.90;;;;;;5116736;28;20495;-61
2022/12/22 15:02:32;;;;;;;10.07;2.80;;;11.80;99.90;;;;;;5116258;28;20496;-60
2022/12/22 15:05:14;;;;;;;4.60;2.60;;;11.80;99.90;;;;;;5116201;28;20446;-60
2022/12/22 15:07:47;;;;;;;2.70;2.47;;;11.80;99.90;;;;;;5116643;28;20480;-59
2022/12/22 15:10:14;;;;;;;6.80;2.40;;;11.80;99.90;;;;;;5115972;28;20484;-61
2022/12/22 15:12:43;;;;;;;6.77;2.57;;;11.80;99.90;;;;;;5116092;28;20858;-62
2022/12/22 15:15:18;;;;;;;6.17;2.60;;;11.70;99.90;;;;;;5115693;28;20969;-59
2022/12/22 15:17:47;;;;;;;5.00;2.10;;;11.70;99.90;;;;;;5115692;28;20446;-59
2022/12/22 15:20:18;;;;;;;10.07;3.87;;;11.60;99.90;;;;;;5115920;28;20494;-56
2022/12/22 15:22:45;;;;;;;4.90;2.80;;;11.60;99.90;;;;;;5116506;28;20433;-56
2022/12/22 15:25:14;;;;;;;7.83;2.63;;;11.60;99.90;;;;;;5115747;28;20474;-58
2022/12/22 15:27:43;;;;;;;5.93;2.50;;;11.60;99.90;;;;;;5115767;28;20447;-54
2022/12/22 15:30:12;;;;;;;6.67;2.73;;;11.60;99.90;;;;;;5115622;28;21151;-56
2022/12/22 15:32:40;;;;;;;6.40;2.90;;;11.60;99.90;;;;;;5115958;28;20807;-51
2022/12/22 15:35:16;;;;;;;5.77;2.93;;;11.50;99.90;;;;;;5115876;28;20529;-54
2022/12/22 15:37:43;;;;;;;8.33;2.77;;;11.50;99.90;;;;;;5115852;28;20450;-52
2022/12/22 15:40:16;;;;;;;7.80;3.20;;;11.50;99.90;;;;;;5115190;28;20471;-54
2022/12/22 15:42:45;;;;;;;5.73;2.67;;;11.40;99.90;;;;;;5115810;28;20511;-55
2022/12/22 15:45:13;;;;;;;6.63;3.40;;;11.40;99.90;;;;;;5115403;28;20756;-55
2022/12/22 15:47:41;;;;;;;4.90;2.77;;;11.30;99.90;;;;;;5115397;28;20461;-56
2022/12/22 15:50:15;;;;;;;4.40;2.20;;;11.30;99.90;;;;;;5115510;28;20543;-56
2022/12/22 15:52:45;;;;;;;8.73;2.60;;;11.30;99.90;;;;;;5115667;28;20781;-55
2022/12/22 15:55:14;;;;;;;7.63;3.00;;;11.30;99.90;;;;;;5115467;28;21007;-55
2022/12/22 15:57:43;;;;;;;6.17;2.47;;;11.30;99.90;;;;;;5115107;28;20450;-55
2022/12/22 16:00:14;;;;;;;4.70;2.73;;;11.20;99.90;;;;;;5115207;28;20498;-55
2022/12/22 16:02:41;;;;;;;6.53;3.13;;;11.20;99.90;;;;;;5115393;28;20435;-55
2022/12/22 16:05:09;;;;;;;4.27;3.20;;;11.20;99.90;;;;;;5115410;28;20442;-55
2022/12/22 16:07:37;;;;;;;6.90;2.60;;;11.10;99.90;;;;;;5115245;28;20450;-55
2022/12/22 16:10:06;;;;;;;3.70;2.40;;;11.20;99.90;;;;;;5115237;28;20508;-56
2022/12/22 16:12:33;;;;;;;9.27;3.27;;;11.10;99.90;;;;;;5115112;28;20474;-55
2022/12/22 16:15:02;;;;;;;6.37;3.10;;;11.10;99.90;;;;;;5114838;28;20453;-58
2022/12/22 16:17:31;;;;;;;6.50;3.10;;;11.10;99.90;;;;;;5114633;28;20972;-59
2022/12/22 16:19:59;;;;;;;3.93;2.43;;;11.00;99.90;;;;;;5114856;28;20463;-59
2022/12/22 16:22:32;;;;;;;6.67;3.10;;;11.00;99.90;;;;;;5114897;28;20542;-60
2022/12/22 16:25:00;;;;;;;7.87;2.60;;;11.00;99.90;;;;;;5115276;28;20431;-58
2022/12/22 16:27:28;;;;;;;4.10;3.53;;;11.00;99.90;;;;;;5114851;28;20438;-58
2022/12/22 16:29:55;;;;;;;10.50;2.63;;;11.00;99.90;;;;;;5114191;28;20569;-58
2022/12/22 16:32:25;;;;;;;8.87;3.47;;;11.00;99.90;;;;;;5114851;28;20442;-58
2022/12/22 16:34:54;;;;;;;6.63;3.07;;;10.90;99.90;;;;;;5114576;28;20981;-58
2022/12/22 16:37:21;;;;;;;8.53;3.20;;;10.90;99.90;;;;;;5114362;28;20802;-58
2022/12/22 16:39:48;;;;;;;18.80;3.73;;;10.90;99.90;;;;;;5114771;28;20466;-58
2022/12/22 16:42:18;;;;;;;6.40;3.13;;;10.90;99.90;;;;;;5114193;28;20485;-58
2022/12/22 16:44:48;;;;;;;10.43;3.50;;;10.90;99.90;;;;;;5114185;28;20476;-58